Time;durP1;ratioP1;P1;durP2;ratioP2;P2;SDS_P1;SDS_P2;PMS_P1;PMS_P2;Temp;Humidity;BMP_temperature;BMP_pressure;BME280_temperature;BME280_humidity;BME280_pressure;Samples;Min_cycle;Max_cycle;Signal;HPM_P1;HPM_P2
2021/09/02 00:02:26;;;;;;;;;;;;;;;14.99;75.09;101064.94;5014184;28;19929;-63
2021/09/02 00:05:10;;;;;;;;;;;;;;;14.97;74.94;101080.56;5013247;28;19928;-62
2021/09/02 00:07:54;;;;;;;;;;;;;;;14.96;74.97;101072.72;5014133;28;19967;-62
2021/09/02 00:10:38;;;;;;;;;;;;;;;14.95;74.90;101061.38;5013650;28;19929;-62
2021/09/02 00:13:21;;;;;;;;;;;;;;;14.93;74.76;101073.56;5012878;28;20132;-62
2021/09/02 00:16:05;;;;;;;;;;;;;;;14.92;74.96;101067.44;5013706;28;19948;-62
2021/09/02 00:18:55;;;;;;;;;;;;;;;14.90;74.80;101063.94;5027008;28;19928;-62
2021/09/02 00:21:39;;;;;;;;;;;;;;;14.90;74.81;101070.91;5012600;28;19929;-62
2021/09/02 00:24:23;;;;;;;;;;;;;;;14.89;74.79;101069.16;5017597;28;19928;-62
2021/09/02 00:27:09;;;;;;;;;;;;;;;14.87;74.70;101057.81;5017974;28;20008;-62
2021/09/02 00:29:54;;;;;;;;;;;;;;;14.86;74.72;101059.56;5016940;28;19929;-62
2021/09/02 00:32:43;;;;;;;;;;;;;;;14.87;74.69;101061.28;5018015;28;19990;-62
2021/09/02 00:35:30;;;;;;;;;;;;;;;14.87;74.63;101061.28;5016736;28;19972;-64
2021/09/02 00:38:19;;;;;;;;;;;;;;;14.86;74.85;101050.81;5017693;28;19927;-62
2021/09/02 00:41:08;;;;;;;;;;;;;;;14.86;74.77;101050.81;5016791;28;19976;-62
2021/09/02 00:43:54;;;;;;;;;;;;;;;14.85;74.71;101052.56;5017148;28;19967;-62
2021/09/02 00:46:38;;;;;;;;;;;;;;;14.85;74.82;101056.91;5017957;28;19928;-62
2021/09/02 00:49:25;;;;;;;;;;;;;;;14.84;74.73;101052.53;5016809;28;19974;-62
2021/09/02 00:52:13;;;;;;;;;;;;;;;14.83;74.81;101062.09;5017508;28;19929;-62
2021/09/02 00:55:02;;;;;;;;;;;;;;;14.82;74.75;101057.75;5030141;28;20407;-62
2021/09/02 00:57:46;;;;;;;;;;;;;;;14.82;74.69;101057.75;5016639;28;20017;-62
2021/09/02 01:00:30;;;;;;;;;;;;;;;14.81;74.85;101052.47;5017045;28;19972;-62
2021/09/02 01:03:18;;;;;;;;;;;;;;;14.80;74.62;101037.69;5017222;28;19928;-62
2021/09/02 01:06:06;;;;;;;;;;;;;;;14.79;74.63;101038.56;5016323;28;19932;-63
2021/09/02 01:08:53;;;;;;;;;;;;;;;14.76;74.67;101050.72;5016546;28;19928;-63
2021/09/02 01:11:39;;;;;;;;;;;;;;;14.75;74.53;101042.84;5016061;28;19975;-63
2021/09/02 01:14:24;;;;;;;;;;;;;;;14.73;74.65;101045.44;5017177;28;19936;-63
2021/09/02 01:17:08;;;;;;;;;;;;;;;14.73;74.83;101039.31;5016627;28;19976;-63
2021/09/02 01:19:55;;;;;;;;;;;;;;;14.71;74.55;101036.69;5017337;28;20273;-63
2021/09/02 01:22:46;;;;;;;;;;;;;;;14.70;74.54;101032.34;5016031;28;19928;-63
2021/09/02 01:25:33;;;;;;;;;;;;;;;14.69;74.56;101040.16;5016073;28;20395;-63
2021/09/02 01:28:20;;;;;;;;;;;;;;;14.69;74.59;101029.72;5016329;28;19929;-63
2021/09/02 01:31:12;;;;;;;;;;;;;;;14.67;74.60;101029.63;5017020;28;19928;-63
2021/09/02 01:33:56;;;;;;;;;;;;;;;14.66;74.56;101037.47;5015626;28;19989;-63
2021/09/02 01:36:40;;;;;;;;;;;;;;;14.65;74.48;101036.56;5016686;28;19975;-63
2021/09/02 01:39:24;;;;;;;;;;;;;;;14.64;74.67;101034.81;5016631;28;20396;-63
2021/09/02 01:42:11;;;;;;;;;;;;;;;14.61;74.64;101033.03;5016428;28;20403;-63
2021/09/02 01:44:55;;;;;;;;;;;;;;;14.61;74.54;101030.44;5016013;28;20000;-63
2021/09/02 01:47:40;;;;;;;;;;;;;;;14.61;74.59;101033.03;5016578;28;20071;-63
2021/09/02 01:50:24;;;;;;;;;;;;;;;14.60;74.56;101027.81;5016281;28;20060;-63
2021/09/02 01:53:18;;;;;;;;;;;;;;;14.59;74.42;101028.66;5015322;28;19928;-63
2021/09/02 01:56:08;;;;;;;;;;;;;;;14.57;74.39;101028.63;5016047;28;19980;-63
2021/09/02 01:58:58;;;;;;;;;;;;;;;14.56;74.33;101026.00;5015445;28;19979;-63
2021/09/02 02:01:45;;;;;;;;;;;;;;;14.56;74.29;101031.22;5015118;28;20072;-63
2021/09/02 02:04:32;;;;;;;;;;;;;;;14.53;74.39;101021.63;5015373;28;20407;-63
2021/09/02 02:07:16;;;;;;;;;;;;;;;14.53;74.27;101025.94;5015520;28;19929;-63
2021/09/02 02:10:04;;;;;;;;;;;;;;;14.51;74.25;101023.34;5015418;28;19972;-63
2021/09/02 02:12:51;;;;;;;;;;;;;;;14.50;74.45;101024.19;5015187;28;19975;-64
2021/09/02 02:15:38;;;;;;;;;;;;;;;14.49;74.24;101025.03;5015886;28;19972;-63
2021/09/02 02:18:24;;;;;;;;;;;;;;;14.48;74.35;101023.28;5016044;28;19968;-63
2021/09/02 02:21:14;;;;;;;;;;;;;;;14.45;74.32;101024.13;5015944;28;19927;-63
2021/09/02 02:24:00;;;;;;;;;;;;;;;14.45;74.24;101020.63;5015208;28;20018;-63
2021/09/02 02:26:50;;;;;;;;;;;;;;;14.43;74.15;101023.22;5014661;28;19967;-63
2021/09/02 02:29:34;;;;;;;;;;;;;;;14.42;74.37;101021.47;5014783;28;19929;-63
2021/09/02 02:32:18;;;;;;;;;;;;;;;14.41;74.41;101024.03;5015240;28;19964;-62
2021/09/02 02:35:02;;;;;;;;;;;;;;;14.40;74.25;101019.69;5014841;28;19932;-63
2021/09/02 02:37:49;;;;;;;;;;;;;;;14.39;74.21;101015.31;5015758;28;19929;-62
2021/09/02 02:40:36;;;;;;;;;;;;;;;14.38;74.16;101022.25;5014811;28;20288;-63
2021/09/02 02:43:23;;;;;;;;;;;;;;;14.37;74.12;101009.19;5015436;28;19994;-62
2021/09/02 02:46:10;;;;;;;;;;;;;;;14.36;74.24;101004.84;5014542;28;20406;-63
2021/09/02 02:48:57;;;;;;;;;;;;;;;14.36;74.26;101010.06;5015081;28;19928;-62
2021/09/02 02:51:44;;;;;;;;;;;;;;;14.35;74.03;101003.94;5014255;28;19927;-63
2021/09/02 02:54:28;;;;;;;;;;;;;;;14.35;74.20;101011.75;5014788;28;19928;-63
2021/09/02 02:57:17;;;;;;;;;;;;;;;14.35;74.06;101005.69;5014469;28;19929;-63
2021/09/02 03:00:07;;;;;;;;;;;;;;;14.34;74.26;101004.78;5028472;28;20054;-63
2021/09/02 03:02:53;;;;;;;;;;;;;;;14.35;74.26;100997.88;5014607;28;19928;-63
2021/09/02 03:05:46;;;;;;;;;;;;;;;14.32;74.04;101002.19;5013896;28;19929;-63
2021/09/02 03:08:30;;;;;;;;;;;;;;;14.33;74.04;101003.03;5013926;28;19928;-63
2021/09/02 03:11:16;;;;;;;;;;;;;;;14.31;74.12;101008.25;5014831;28;19929;-63
2021/09/02 03:14:01;;;;;;;;;;;;;;;14.30;74.08;101009.09;5015321;28;19945;-64
2021/09/02 03:16:45;;;;;;;;;;;;;;;14.29;74.16;101007.34;5014923;28;19948;-62
2021/09/02 03:19:31;;;;;;;;;;;;;;;14.29;74.28;101002.13;5014747;28;19948;-62
2021/09/02 03:22:16;;;;;;;;;;;;;;;14.28;74.24;100997.75;5014017;28;19983;-62
2021/09/02 03:25:02;;;;;;;;;;;;;;;14.26;74.09;100994.25;5015130;28;20016;-62
2021/09/02 03:27:46;;;;;;;;;;;;;;;14.26;74.13;100996.84;5014043;28;20431;-62
2021/09/02 03:30:33;;;;;;;;;;;;;;;14.25;74.13;100997.69;5027992;28;20011;-62
2021/09/02 03:33:20;;;;;;;;;;;;;;;14.25;74.27;100995.09;5014526;28;19951;-62
2021/09/02 03:36:04;;;;;;;;;;;;;;;14.24;74.12;100992.47;5014010;28;19970;-62
2021/09/02 03:38:54;;;;;;;;;;;;;;;14.23;73.98;100985.50;5014171;28;19945;-62
2021/09/02 03:41:39;;;;;;;;;;;;;;;14.22;74.20;100988.97;5027656;28;20396;-62
2021/09/02 03:44:23;;;;;;;;;;;;;;;14.23;74.01;100985.50;5014321;28;20396;-62
2021/09/02 03:47:07;;;;;;;;;;;;;;;14.22;74.06;100982.03;5014617;28;20419;-62
2021/09/02 03:49:51;;;;;;;;;;;;;;;14.19;73.99;100981.97;5013635;28;20003;-63
2021/09/02 03:52:40;;;;;;;;;;;;;;;14.19;74.10;100981.97;5014630;28;20380;-62
2021/09/02 03:55:27;;;;;;;;;;;;;;;14.19;74.20;100984.59;5013534;28;19928;-62
2021/09/02 03:58:13;;;;;;;;;;;;;;;14.18;73.91;100981.94;5014558;28;20400;-62
2021/09/02 04:01:00;;;;;;;;;;;;;;;14.17;73.90;100983.69;5014608;28;19976;-62
2021/09/02 04:03:44;;;;;;;;;;;;;;;14.15;74.21;100986.28;5014291;28;19976;-62
2021/09/02 04:06:31;;;;;;;;;;;;;;;14.16;74.04;100984.53;5014456;28;19927;-62
2021/09/02 04:09:17;;;;;;;;;;;;;;;14.14;74.18;100981.03;5014177;28;19933;-64
2021/09/02 04:12:05;;;;;;;;;;;;;;;14.14;74.07;100984.50;5012973;28;19935;-64
2021/09/02 04:14:49;;;;;;;;;;;;;;;14.13;74.09;100979.25;5012983;28;20064;-64
2021/09/02 04:17:35;;;;;;;;;;;;;;;14.13;73.97;100981.88;5013723;28;19976;-64
2021/09/02 04:20:19;;;;;;;;;;;;;;;14.12;74.04;100980.09;5027222;28;19929;-63
2021/09/02 04:23:09;;;;;;;;;;;;;;;14.12;73.95;100973.19;5014155;28;20327;-63
2021/09/02 04:25:53;;;;;;;;;;;;;;;14.13;74.09;100976.66;5013428;28;19975;-64
2021/09/02 04:28:40;;;;;;;;;;;;;;;14.13;74.13;100976.66;5013761;28;20031;-63
2021/09/02 04:31:29;;;;;;;;;;;;;;;14.13;74.15;100976.66;5027192;28;19929;-63
2021/09/02 04:34:16;;;;;;;;;;;;;;;14.11;74.13;100976.66;5012518;28;19975;-63
2021/09/02 04:37:00;;;;;;;;;;;;;;;14.12;74.05;100967.06;5013953;28;20032;-63
2021/09/02 04:39:43;;;;;;;;;;;;;;;14.12;74.08;100962.75;5013971;28;19928;-63
2021/09/02 04:42:30;;;;;;;;;;;;;;;14.12;73.90;100956.66;5013240;28;20288;-63
2021/09/02 04:45:17;;;;;;;;;;;;;;;14.13;74.10;100958.41;5013661;28;19929;-63
2021/09/02 04:48:24;;;;;;;;;;;;;;;14.13;74.02;100961.00;5013056;28;19928;-63
2021/09/02 04:51:13;;;;;;;;;;;;;;;14.13;74.15;100961.00;5012584;28;19944;-63
2021/09/02 04:54:00;;;;;;;;;;;;;;;14.13;74.24;100961.00;5012972;28;19928;-63
2021/09/02 04:56:44;;;;;;;;;;;;;;;14.12;74.12;100965.38;5013205;28;19928;-63
2021/09/02 04:59:28;;;;;;;;;;;;;;;14.12;74.17;100973.19;5013963;28;19975;-63
2021/09/02 05:02:12;;;;;;;;;;;;;;;14.12;74.27;100972.28;5012197;28;19928;-63
2021/09/02 05:04:57;;;;;;;;;;;;;;;14.13;74.29;100968.84;5013757;28;20340;-63
2021/09/02 05:07:44;;;;;;;;;;;;;;;14.13;74.08;100974.03;5013991;28;20419;-63
2021/09/02 05:10:29;;;;;;;;;;;;;;;14.13;74.18;100974.03;5017225;28;19927;-63
2021/09/02 05:13:12;;;;;;;;;;;;;;;14.13;74.09;100974.94;5017032;28;19928;-63
2021/09/02 05:15:59;;;;;;;;;;;;;;;14.12;74.11;100972.28;5016835;28;20036;-64
2021/09/02 05:18:43;;;;;;;;;;;;;;;14.12;74.24;100983.59;5015972;28;19928;-63
2021/09/02 05:21:33;;;;;;;;;;;;;;;14.13;74.14;100990.59;5017220;28;19964;-63
2021/09/02 05:24:17;;;;;;;;;;;;;;;14.12;74.32;100994.03;5015863;28;19945;-63
2021/09/02 05:27:04;;;;;;;;;;;;;;;14.12;74.17;100994.03;5016539;28;19928;-64
2021/09/02 05:29:48;;;;;;;;;;;;;;;14.11;74.31;100989.69;5016271;28;19945;-63
2021/09/02 05:32:32;;;;;;;;;;;;;;;14.13;74.30;100987.09;5016552;28;19968;-63
2021/09/02 05:35:16;;;;;;;;;;;;;;;14.13;74.26;100987.09;5016678;28;20034;-63
2021/09/02 05:38:03;;;;;;;;;;;;;;;14.13;74.16;100984.47;5016923;28;19928;-63
2021/09/02 05:40:47;;;;;;;;;;;;;;;14.13;74.32;100985.38;5016680;28;20411;-63
2021/09/02 05:43:34;;;;;;;;;;;;;;;14.13;74.31;100987.97;5016928;28;19928;-63
2021/09/02 05:46:21;;;;;;;;;;;;;;;14.14;74.38;100986.22;5015564;28;19928;-63
2021/09/02 05:49:08;;;;;;;;;;;;;;;14.15;74.19;100980.16;5016163;28;19932;-63
2021/09/02 05:51:52;;;;;;;;;;;;;;;14.15;74.32;100980.16;5016753;28;20388;-63
2021/09/02 05:54:38;;;;;;;;;;;;;;;14.15;74.36;100985.38;5015683;28;20016;-63
2021/09/02 05:57:23;;;;;;;;;;;;;;;14.15;74.33;100982.78;5015204;28;20392;-63
2021/09/02 06:00:07;;;;;;;;;;;;;;;14.16;74.21;100979.31;5016221;28;19929;-63
2021/09/02 06:02:51;;;;;;;;;;;;;;;14.17;74.24;100973.25;5015844;28;19929;-63
2021/09/02 06:05:35;;;;;;;;;;;;;;;14.17;74.54;100970.66;5016161;28;19927;-63
2021/09/02 06:08:19;;;;;;;;;;;;;;;14.17;74.26;100973.25;5015707;28;19928;-64
2021/09/02 06:11:04;;;;;;;;;;;;;;;14.18;74.28;100971.50;5015775;28;20033;-64
2021/09/02 06:13:48;;;;;;;;;;;;;;;14.19;74.57;100979.38;5015231;28;20026;-63
2021/09/02 06:16:32;;;;;;;;;;;;;;;14.21;74.63;100982.00;5014970;28;19927;-64
2021/09/02 06:19:16;;;;;;;;;;;;;;;14.20;74.56;100970.69;5016638;28;19967;-64
2021/09/02 06:22:03;;;;;;;;;;;;;;;14.22;74.58;100971.59;5015843;28;20411;-64
2021/09/02 06:24:47;;;;;;;;;;;;;;;14.22;74.49;100966.38;5015326;28;19928;-62
2021/09/02 06:27:31;;;;;;;;;;;;;;;14.25;74.51;100974.25;5016101;28;19976;-62
2021/09/02 06:30:15;;;;;;;;;;;;;;;14.24;74.52;100969.91;5015688;28;20013;-62
2021/09/02 06:32:59;;;;;;;;;;;;;;;14.25;74.41;100974.25;5015652;28;19929;-62
2021/09/02 06:35:43;;;;;;;;;;;;;;;14.27;74.51;100976.88;5015244;28;19929;-62
2021/09/02 06:38:30;;;;;;;;;;;;;;;14.28;74.48;100982.13;5015330;28;19980;-62
2021/09/02 06:41:14;;;;;;;;;;;;;;;14.29;74.66;100977.78;5015235;28;19941;-62
2021/09/02 06:44:01;;;;;;;;;;;;;;;14.29;74.53;100981.25;5028862;28;20029;-64
2021/09/02 06:46:45;;;;;;;;;;;;;;;14.29;74.41;100983.88;5015202;28;19968;-62
2021/09/02 06:49:29;;;;;;;;;;;;;;;14.31;74.67;100986.53;5015633;28;20008;-63
2021/09/02 06:52:12;;;;;;;;;;;;;;;14.31;74.72;100976.94;5014959;28;20401;-62
2021/09/02 06:54:57;;;;;;;;;;;;;;;14.33;74.77;100984.78;5015456;28;20297;-64
2021/09/02 06:57:41;;;;;;;;;;;;;;;14.33;74.63;100971.75;5015068;28;19929;-63
2021/09/02 07:00:25;;;;;;;;;;;;;;;14.34;74.66;100970.91;5014520;28;20377;-63
2021/09/02 07:03:09;;;;;;;;;;;;;;;14.35;74.68;100974.41;5015569;28;19935;-63
2021/09/02 07:05:53;;;;;;;;;;;;;;;14.36;74.82;100982.22;5014805;28;19967;-63
2021/09/02 07:08:37;;;;;;;;;;;;;;;14.36;74.68;100977.00;5014504;28;19944;-63
2021/09/02 07:11:21;;;;;;;;;;;;;;;14.37;74.66;100981.38;5014522;28;19928;-64
2021/09/02 07:14:05;;;;;;;;;;;;;;;14.38;74.64;100980.53;5015341;28;19929;-63
2021/09/02 07:16:49;;;;;;;;;;;;;;;14.39;74.61;100971.84;5014363;28;19944;-63
2021/09/02 07:19:33;;;;;;;;;;;;;;;14.38;74.68;100977.91;5014433;28;19929;-63
2021/09/02 07:22:19;;;;;;;;;;;;;;;14.41;74.74;100979.69;5014780;28;20473;-62
2021/09/02 07:25:03;;;;;;;;;;;;;;;14.40;74.71;100972.75;5013337;28;19932;-62
2021/09/02 07:27:47;;;;;;;;;;;;;;;14.40;74.93;100981.44;5028134;28;20105;-64
2021/09/02 07:30:31;;;;;;;;;;;;;;;14.42;74.89;100984.94;5014180;28;20358;-62
2021/09/02 07:33:15;;;;;;;;;;;;;;;14.44;74.78;100992.78;5014476;28;19944;-62
2021/09/02 07:35:58;;;;;;;;;;;;;;;14.43;74.85;100986.69;5014169;28;19928;-62
2021/09/02 07:38:45;;;;;;;;;;;;;;;14.44;74.87;100984.97;5015400;28;19929;-62
2021/09/02 07:41:29;;;;;;;;;;;;;;;14.45;74.80;100991.94;5014500;28;19967;-62
2021/09/02 07:44:16;;;;;;;;;;;;;;;14.45;75.01;100981.50;5014475;28;20403;-62
2021/09/02 07:47:00;;;;;;;;;;;;;;;14.47;74.98;100982.41;5027360;28;19967;-62
2021/09/02 07:49:44;;;;;;;;;;;;;;;14.46;74.92;100978.94;5014589;28;19929;-62
2021/09/02 07:52:28;;;;;;;;;;;;;;;14.48;74.89;100978.06;5014344;28;19976;-62
2021/09/02 07:55:12;;;;;;;;;;;;;;;14.48;75.08;100972.88;5013535;28;19929;-62
2021/09/02 07:57:57;;;;;;;;;;;;;;;14.48;74.93;100968.50;5014487;28;20399;-62
2021/09/02 08:00:46;;;;;;;;;;;;;;;14.50;74.98;100971.13;5013632;28;20025;-63
2021/09/02 08:03:30;;;;;;;;;;;;;;;14.51;74.94;100976.38;5026806;28;19987;-62
2021/09/02 08:06:14;;;;;;;;;;;;;;;14.52;75.15;100972.03;5013982;28;19928;-62
2021/09/02 08:09:01;;;;;;;;;;;;;;;14.53;75.15;100981.59;5013866;28;19944;-62
2021/09/02 08:11:48;;;;;;;;;;;;;;;14.53;75.21;100982.50;5014526;28;20428;-63
2021/09/02 08:14:35;;;;;;;;;;;;;;;14.54;75.22;100980.75;5014105;28;19928;-62
2021/09/02 08:17:22;;;;;;;;;;;;;;;14.56;75.20;100989.47;5027320;28;19928;-64
2021/09/02 08:20:10;;;;;;;;;;;;;;;14.55;75.15;100993.84;5013902;28;19932;-62
2021/09/02 08:22:54;;;;;;;;;;;;;;;14.56;74.98;100992.94;5013056;28;19948;-62
2021/09/02 08:25:43;;;;;;;;;;;;;;;14.58;75.12;100987.78;5014295;28;19937;-62
2021/09/02 08:28:30;;;;;;;;;;;;;;;14.58;74.99;100979.97;5013367;28;19928;-62
2021/09/02 08:31:14;;;;;;;;;;;;;;;14.59;75.06;100993.00;5013428;28;19975;-64
2021/09/02 08:34:04;;;;;;;;;;;;;;;14.61;75.04;100990.44;5013909;28;20296;-62
2021/09/02 08:36:47;;;;;;;;;;;;;;;14.62;75.04;100984.38;5012556;28;20444;-62
2021/09/02 08:39:34;;;;;;;;;;;;;;;14.63;75.04;100988.72;5014309;28;20427;-63
2021/09/02 08:42:18;;;;;;;;;;;;;;;14.66;75.04;100985.28;5013846;28;19960;-62
2021/09/02 08:45:04;;;;;;;;;;;;;;;14.67;75.18;100987.91;5017975;28;20007;-62
2021/09/02 08:47:49;;;;;;;;;;;;;;;14.68;75.27;100986.22;5016591;28;19928;-62
2021/09/02 08:50:34;;;;;;;;;;;;;;;14.70;75.21;100982.75;5016378;28;19960;-62
2021/09/02 08:53:18;;;;;;;;;;;;;;;14.72;75.22;100985.38;5017806;28;19982;-62
2021/09/02 08:56:08;;;;;;;;;;;;;;;14.74;75.13;100975.84;5016954;28;19975;-63
2021/09/02 08:58:52;;;;;;;;;;;;;;;14.75;75.15;100983.72;5016161;28;20427;-62
2021/09/02 09:01:36;;;;;;;;;;;;;;;14.78;75.10;100985.47;5017287;28;20431;-62
2021/09/02 09:04:23;;;;;;;;;;;;;;;14.79;75.10;100984.63;5017195;28;19944;-62
2021/09/02 09:07:13;;;;;;;;;;;;;;;14.81;75.08;100989.84;5030661;28;19971;-62
2021/09/02 09:09:57;;;;;;;;;;;;;;;14.83;75.12;100994.25;5016375;28;19929;-63
2021/09/02 09:12:43;;;;;;;;;;;;;;;14.85;75.17;100982.13;5016719;28;20051;-62
2021/09/02 09:15:31;;;;;;;;;;;;;;;14.88;74.91;100979.53;5017047;28;19971;-62
2021/09/02 09:18:20;;;;;;;;;;;;;;;14.89;74.91;100978.66;5016484;28;19928;-62
2021/09/02 09:21:07;;;;;;;;;;;;;;;14.93;74.92;100982.22;5016576;28;19944;-62
2021/09/02 09:23:54;;;;;;;;;;;;;;;14.95;75.12;100977.00;5017054;28;19928;-62
2021/09/02 09:26:38;;;;;;;;;;;;;;;14.97;74.93;100975.28;5016590;28;19928;-62
2021/09/02 09:29:22;;;;;;;;;;;;;;;14.99;74.89;100971.81;5017175;28;19929;-62
2021/09/02 09:32:13;;;;;;;;;;;;;;;15.00;74.93;100970.13;5016873;28;20305;-63
2021/09/02 09:34:57;;;;;;;;;;;;;;;15.02;74.78;100971.88;5016019;28;20388;-62
2021/09/02 09:37:48;;;;;;;;;;;;;;;15.04;74.96;100977.09;5016833;28;19944;-61
2021/09/02 09:40:33;;;;;;;;;;;;;;;15.06;74.88;100972.78;5015481;28;19964;-62
2021/09/02 09:43:24;;;;;;;;;;;;;;;15.07;74.76;100974.53;5016568;28;19928;-62
2021/09/02 09:46:09;;;;;;;;;;;;;;;15.10;74.90;100969.34;5016629;28;19929;-62
2021/09/02 09:48:57;;;;;;;;;;;;;;;15.10;74.74;100966.75;5016444;28;20297;-62
2021/09/02 09:51:43;;;;;;;;;;;;;;;15.11;74.67;100960.66;5015232;28;19929;-62
2021/09/02 09:54:27;;;;;;;;;;;;;;;15.14;74.70;100967.66;5015352;28;19992;-62
2021/09/02 09:57:11;;;;;;;;;;;;;;;15.15;74.68;100964.19;5016263;28;20320;-62
2021/09/02 10:00:15;;;;;;;;;;;;;;;15.17;74.57;100965.09;5015370;28;19968;-62
2021/09/02 10:02:59;;;;;;;;;;;;;;;15.19;74.65;100960.75;5016680;28;19931;-62
2021/09/02 10:05:46;;;;;;;;;;;;;;;15.21;74.67;100965.13;5016491;28;19929;-62
2021/09/02 10:08:31;;;;;;;;;;;;;;;15.22;74.62;100960.81;5015048;28;20358;-63
2021/09/02 10:11:16;;;;;;;;;;;;;;;15.24;74.59;100951.25;5016458;28;20264;-63
2021/09/02 10:14:00;;;;;;;;;;;;;;;15.26;74.60;100957.34;5015653;28;19928;-62
2021/09/02 10:16:49;;;;;;;;;;;;;;;15.26;74.65;100946.91;5016053;28;19928;-62
2021/09/02 10:19:34;;;;;;;;;;;;;;;15.29;74.66;100940.84;5015793;28;20001;-62
2021/09/02 10:22:19;;;;;;;;;;;;;;;15.30;74.38;100937.38;5014941;28;19928;-62
2021/09/02 10:25:04;;;;;;;;;;;;;;;15.31;74.55;100928.69;5028951;28;19932;-62
2021/09/02 10:28:00;;;;;;;;;;;;;;;15.32;74.43;100931.31;5015664;28;19928;-62
2021/09/02 10:30:48;;;;;;;;;;;;;;;15.33;74.36;100943.50;5015186;28;19975;-61
2021/09/02 10:33:36;;;;;;;;;;;;;;;15.36;74.38;100934.81;5015528;28;19928;-62
2021/09/02 10:36:20;;;;;;;;;;;;;;;15.38;74.51;100933.09;5015231;28;20451;-62
2021/09/02 10:39:04;;;;;;;;;;;;;;;15.40;74.41;100930.53;5014695;28;19968;-62
2021/09/02 10:41:49;;;;;;;;;;;;;;;15.40;74.11;100923.56;5014602;28;19928;-62
2021/09/02 10:44:50;;;;;;;;;;;;;;;15.41;74.35;100920.09;5014845;28;20399;-62
2021/09/02 10:47:43;;;;;;;;;;;;;;;15.42;74.42;100910.50;5014443;28;19929;-62
2021/09/02 10:50:28;;;;;;;;;;;;;;;15.44;74.32;100909.66;5014318;28;19975;-62
2021/09/02 10:53:16;;;;;;;;;;;;;;;15.46;74.45;100905.34;5015397;28;20296;-62
2021/09/02 10:56:03;;;;;;;;;;;;;;;15.47;74.40;100901.88;5015020;28;19975;-62
2021/09/02 10:58:48;;;;;;;;;;;;;;;15.49;74.40;100902.72;5028072;28;19930;-61
2021/09/02 11:01:38;;;;;;;;;;;;;;;15.51;74.39;100889.72;5014368;28;19944;-61
2021/09/02 11:04:24;;;;;;;;;;;;;;;15.52;74.35;100897.53;5015159;28;19928;-62
2021/09/02 11:07:11;;;;;;;;;;;;;;;15.55;74.21;100901.03;5013045;28;19923;-62
2021/09/02 11:10:04;;;;;;;;;;;;;;;15.56;74.28;100901.09;5014436;28;19929;-62
2021/09/02 11:12:57;;;;;;;;;;;;;;;15.57;74.33;100899.34;5014544;28;20403;-64
2021/09/02 11:15:43;;;;;;;;;;;;;;;15.59;74.40;100897.63;5014212;28;19929;-62
2021/09/02 11:18:48;;;;;;;;;;;;;;;15.61;74.35;100890.66;5013964;28;20423;-62
2021/09/02 11:21:35;;;;;;;;;;;;;;;15.62;74.17;100893.28;5014874;28;20025;-62
2021/09/02 11:24:22;;;;;;;;;;;;;;;15.64;74.23;100893.31;5014114;28;20033;-62
2021/09/02 11:27:07;;;;;;;;;;;;;;;15.66;74.28;100894.19;5014957;28;19932;-62
2021/09/02 11:29:51;;;;;;;;;;;;;;;15.69;74.17;100894.22;5013883;28;19928;-61
2021/09/02 11:32:35;;;;;;;;;;;;;;;15.71;74.15;100889.88;5014939;28;19967;-61
2021/09/02 11:35:20;;;;;;;;;;;;;;;15.71;74.23;100887.25;5014348;28;20439;-62
2021/09/02 11:38:04;;;;;;;;;;;;;;;15.73;74.27;100889.88;5014965;28;19929;-62
2021/09/02 11:40:48;;;;;;;;;;;;;;;15.74;74.11;100878.56;5013855;28;20317;-62
2021/09/02 11:43:39;;;;;;;;;;;;;;;15.75;74.22;100878.59;5014483;28;19928;-61
2021/09/02 11:46:23;;;;;;;;;;;;;;;15.77;74.15;100882.09;5027671;28;20396;-62
2021/09/02 11:49:14;;;;;;;;;;;;;;;15.78;74.18;100870.78;5014384;28;20384;-62
2021/09/02 11:51:59;;;;;;;;;;;;;;;15.78;74.04;100872.50;5014792;28;19983;-62
2021/09/02 11:54:43;;;;;;;;;;;;;;;15.80;74.14;100869.03;5027737;28;20059;-63
2021/09/02 11:57:26;;;;;;;;;;;;;;;15.82;74.04;100861.22;5014379;28;20296;-64
2021/09/02 12:00:14;;;;;;;;;;;;;;;15.84;74.20;100856.88;5027569;28;20008;-62
2021/09/02 12:02:59;;;;;;;;;;;;;;;15.84;74.15;100860.34;5012867;28;20009;-62
2021/09/02 12:05:46;;;;;;;;;;;;;;;15.87;74.24;100863.88;5014562;28;20013;-62
2021/09/02 12:08:33;;;;;;;;;;;;;;;15.88;74.10;100866.53;5013247;28;20028;-62
2021/09/02 12:11:20;;;;;;;;;;;;;;;15.88;74.15;100861.31;5014581;28;20476;-62
2021/09/02 12:14:14;;;;;;;;;;;;;;;15.89;74.06;100863.03;5013321;28;19972;-62
2021/09/02 12:17:05;;;;;;;;;;;;;;;15.91;74.20;100861.31;5014744;28;19972;-62
2021/09/02 12:19:50;;;;;;;;;;;;;;;15.93;74.06;100858.72;5019567;28;20423;-62
2021/09/02 12:22:37;;;;;;;;;;;;;;;15.93;74.17;100859.56;5020064;28;19975;-62
2021/09/02 12:25:22;;;;;;;;;;;;;;;15.94;74.36;100852.63;5020009;28;19975;-61
2021/09/02 12:28:10;;;;;;;;;;;;;;;15.96;74.17;100856.13;5020232;28;19928;-62
2021/09/02 12:30:54;;;;;;;;;;;;;;;15.97;74.19;100861.34;5020353;28;19983;-63
2021/09/02 12:33:52;;;;;;;;;;;;;;;15.98;74.19;100862.22;5020574;28;19945;-62
2021/09/02 12:36:42;;;;;;;;;;;;;;;15.98;74.13;100865.72;5020234;28;19975;-63
2021/09/02 12:39:28;;;;;;;;;;;;;;;16.01;74.19;100864.84;5019792;28;19932;-61
2021/09/02 12:42:19;;;;;;;;;;;;;;;16.02;74.32;100858.75;5020322;28;19928;-63
2021/09/02 12:45:06;;;;;;;;;;;;;;;16.04;74.26;100854.44;5020341;28;19971;-63
2021/09/02 12:48:01;;;;;;;;;;;;;;;16.04;74.27;100850.94;5019311;28;20296;-63
2021/09/02 12:50:46;;;;;;;;;;;;;;;16.05;74.25;100850.06;5019538;28;19975;-63
2021/09/02 12:53:35;;;;;;;;;;;;;;;16.06;74.40;100855.31;5019340;28;20304;-63
2021/09/02 12:56:19;;;;;;;;;;;;;;;16.06;74.36;100843.97;5032876;28;20347;-64
2021/09/02 12:59:04;;;;;;;;;;;;;;;16.08;74.48;100844.84;5020474;28;19929;-63
2021/09/02 13:01:53;;;;;;;;;;;;;;;16.08;74.30;100843.13;5019357;28;19928;-63
2021/09/02 13:04:40;;;;;;;;;;;;;;;16.10;74.37;100843.13;5019079;28;19928;-62
2021/09/02 13:07:24;;;;;;;;;;;;;;;16.11;74.34;100842.25;5020608;28;19967;-62
2021/09/02 13:10:11;;;;;;;;;;;;;;;16.11;74.33;100839.66;5019110;28;19929;-62
2021/09/02 13:12:58;;;;;;;;;;;;;;;16.11;74.42;100835.31;5019429;28;19945;-62
2021/09/02 13:15:42;;;;;;;;;;;;;;;16.12;74.30;100823.97;5019797;28;20411;-64
2021/09/02 13:18:29;;;;;;;;;;;;;;;16.13;74.33;100833.56;5020223;28;20007;-62
2021/09/02 13:21:14;;;;;;;;;;;;;;;16.15;74.53;100825.72;5020084;28;19947;-62
2021/09/02 13:23:58;;;;;;;;;;;;;;;16.16;74.42;100823.97;5020146;28;20440;-63
2021/09/02 13:26:41;;;;;;;;;;;;;;;16.17;74.55;100825.72;5020426;28;20380;-63
2021/09/02 13:29:25;;;;;;;;;;;;;;;16.18;74.50;100817.91;5030474;28;20431;-63
2021/09/02 13:32:12;;;;;;;;;;;;;;;16.20;74.67;100823.13;5017071;28;20384;-63
2021/09/02 13:34:58;;;;;;;;;;;;;;;16.21;74.38;100812.66;5016794;28;19932;-62
2021/09/02 13:37:48;;;;;;;;;;;;;;;16.23;74.51;100815.31;5015879;28;20317;-63
2021/09/02 13:40:35;;;;;;;;;;;;;;;16.23;74.52;100813.56;5016836;28;19929;-64
2021/09/02 13:43:19;;;;;;;;;;;;;;;16.24;74.42;100812.69;5015555;28;19968;-63
2021/09/02 13:46:09;;;;;;;;;;;;;;;16.25;74.44;100806.59;5016221;28;19933;-63
2021/09/02 13:48:58;;;;;;;;;;;;;;;16.26;74.67;100807.50;5016047;28;19929;-63
2021/09/02 13:51:50;;;;;;;;;;;;;;;16.27;74.46;100804.88;5015784;28;19928;-63
2021/09/02 13:54:37;;;;;;;;;;;;;;;16.29;74.64;100805.75;5015430;28;19929;-63
2021/09/02 13:57:27;;;;;;;;;;;;;;;16.29;74.70;100800.53;5016229;28;20060;-63
2021/09/02 14:00:11;;;;;;;;;;;;;;;16.31;74.67;100802.28;5015446;28;19928;-63
2021/09/02 14:02:55;;;;;;;;;;;;;;;16.31;74.69;100789.19;5015849;28;19976;-63
2021/09/02 14:05:39;;;;;;;;;;;;;;;16.32;74.44;100781.34;5015435;28;19928;-63
2021/09/02 14:08:23;;;;;;;;;;;;;;;16.32;74.63;100791.81;5016312;28;19967;-63
2021/09/02 14:11:09;;;;;;;;;;;;;;;16.33;74.67;100774.38;5015854;28;20355;-63
2021/09/02 14:13:53;;;;;;;;;;;;;;;16.33;74.56;100775.25;5015919;28;19929;-62